Time;durP1;ratioP1;P1;durP2;ratioP2;P2;SDS_P1;SDS_P2;PMS_P1;PMS_P2;Temp;Humidity;BMP_temperature;BMP_pressure;BME280_temperature;BME280_humidity;BME280_pressure;Samples;Min_cycle;Max_cycle;Signal;HPM_P1;HPM_P2
2022/09/08 08:10:09;;;;;;;1.85;0.75;;;;;;;19.45;66.23;96171.47;2083233;28;20272;-73
2022/09/08 08:11:27;;;;;;;1.30;0.63;;;;;;;19.78;64.91;96168.63;2083194;28;20662;-72
2022/09/08 08:12:44;;;;;;;2.65;0.80;;;;;;;20.00;64.89;96170.25;2081792;28;20236;-72
2022/09/08 08:13:54;;;;;;;1.60;0.60;;;;;;;20.25;64.07;96163.50;2078960;28;20882;-72
2022/09/08 08:15:08;;;;;;;2.75;0.75;;;;;;;20.27;62.43;96171.34;2082289;28;20715;-72
2022/09/08 08:16:13;;;;;;;2.30;0.90;;;;;;;20.58;61.84;96172.00;2081748;28;20836;-72
2022/09/08 08:17:47;;;;;;;2.30;0.77;;;;;;;20.93;61.13;96165.25;2083296;28;20860;-72
2022/09/08 08:19:05;;;;;;;3.50;0.80;;;;;;;20.36;63.68;96167.84;2090176;28;20678;-72
2022/09/08 08:20:25;;;;;;;2.35;0.80;;;;;;;20.32;65.20;96175.25;2092008;28;20243;-72
2022/09/08 08:21:34;;;;;;;1.60;0.70;;;;;;;19.84;64.06;96170.78;2090574;28;20295;-72
2022/09/08 08:22:56;;;;;;;2.00;0.80;;;;;;;19.41;65.28;96173.59;2093588;28;20307;-72
2022/09/08 08:24:00;;;;;;;2.55;0.60;;;;;;;18.93;67.27;96182.16;2091997;28;20201;-72
2022/09/08 08:25:13;;;;;;;2.03;0.80;;;;;;;18.90;68.76;96177.13;2092344;28;20228;-71
2022/09/08 08:34:48;;;;;;;3.00;0.90;;;;;;;18.30;68.68;96176.88;2083784;28;20574;-70
2022/09/08 08:35:59;;;;;;;1.70;0.80;;;;;;;18.19;70.45;96183.88;2090133;28;20774;-70
2022/09/08 08:37:17;;;;;;;1.90;0.80;;;;;;;18.43;69.34;96188.94;2086197;28;20197;-71
2022/09/08 08:38:26;;;;;;;2.05;0.90;;;;;;;18.02;68.96;96195.84;2073807;28;20231;-70
2022/09/08 08:39:31;;;;;;;2.35;0.82;;;;;;;18.02;70.50;96187.09;2077600;28;20592;-71
2022/09/08 08:40:53;;;;;;;2.13;0.90;;;;;;;17.85;70.11;96183.16;2073907;28;20226;-72
2022/09/08 08:42:13;;;;;;;4.30;1.00;;;;;;;17.88;70.61;96189.03;2066578;28;20659;-72
2022/09/08 09:03:09;;;;;;;1.58;0.80;;;;;;;18.96;64.78;96205.72;2110915;28;20214;-70
2022/09/08 09:04:34;;;;;;;2.77;0.80;;;;;;;19.42;64.75;96203.53;2060074;28;1459247;-72
2022/09/08 09:05:44;;;;;;;1.50;0.70;;;;;;;19.14;65.05;96210.41;2112015;28;20284;-70
2022/09/08 09:06:55;;;;;;;1.50;0.70;;;;;;;19.05;66.34;96207.56;2110705;28;20231;-71
2022/09/08 09:08:20;;;;;;;3.47;0.70;;;;;;;18.92;66.58;96201.66;2119948;28;20285;-71
2022/09/08 09:27:43;;;;;;;3.35;0.70;;;;;;;20.96;59.59;96207.44;2110239;28;20273;-69
2022/09/08 09:29:00;;;;;;;2.03;0.70;;;;;;;21.27;57.59;96180.63;2112003;28;20198;-69
2022/09/08 09:30:33;;;;;;;3.13;0.68;;;;;;;21.15;59.33;96209.19;2111117;28;20237;-70
2022/09/08 09:31:53;;;;;;;1.60;0.80;;;;;;;21.21;59.60;96208.56;2111780;28;20201;-69
2022/09/08 09:33:20;;;;;;;2.42;0.80;;;;;;;21.45;58.82;96201.09;2111314;28;20297;-69
2022/09/08 09:34:33;;;;;;;2.92;0.70;;;;;;;21.55;56.01;96199.25;2110605;28;20221;-69
2022/09/08 09:35:53;;;;;;;1.85;0.90;;;;;;;21.61;57.05;96201.31;2111900;28;20257;-70
2022/09/08 09:37:05;;;;;;;6.43;1.00;;;;;;;21.72;57.86;96207.41;2111236;28;20290;-70
2022/09/08 09:38:30;;;;;;;2.88;0.95;;;;;;;21.39;55.51;96189.22;2109973;28;20310;-70
2022/09/08 09:39:38;;;;;;;2.38;0.73;;;;;;;21.07;58.76;96197.63;2110061;28;20681;-70
2022/09/08 09:40:56;;;;;;;1.90;0.75;;;;;;;21.87;58.47;96205.09;2111678;28;20212;-70
2022/09/08 09:42:18;;;;;;;1.80;0.60;;;;;;;21.98;57.27;96205.69;2110703;28;20254;-70
2022/09/08 09:43:41;;;;;;;1.40;0.82;;;;;;;22.04;56.00;96204.25;2111478;28;20297;-70
2022/09/08 09:45:09;;;;;;;4.95;0.70;;;;;;;22.10;55.93;96192.19;2110982;28;20193;-70
2022/09/08 09:46:32;;;;;;;6.85;0.77;;;;;;;21.89;56.15;96201.31;2066674;28;20674;-70
2022/09/08 09:48:19;;;;;;;2.75;0.75;;;;;;;21.97;56.74;96205.84;2110349;28;20222;-70
2022/09/08 09:49:48;;;;;;;2.50;0.77;;;;;;;22.06;56.34;96201.47;2110584;28;20286;-70
2022/09/08 09:51:28;;;;;;;5.22;0.80;;;;;;;21.65;56.32;96208.00;2110241;28;20293;-70
2022/09/08 09:52:49;;;;;;;1.20;0.63;;;;;;;20.95;58.11;96207.56;2081737;28;20351;-70
2022/09/08 09:54:06;;;;;;;2.30;0.73;;;;;;;20.75;58.95;96212.06;2111398;28;20317;-69
2022/09/08 09:55:52;;;;;;;3.38;0.70;;;;;;;20.63;59.58;96198.09;2110329;28;20913;-71
2022/09/08 10:04:44;;;;;;;4.90;0.90;;;;;;;19.77;60.48;96201.38;2085042;28;20584;-70
2022/09/08 10:06:00;;;;;;;5.55;0.90;;;;;;;19.93;60.39;96207.03;2086088;28;20315;-70
2022/09/08 10:07:20;;;;;;;5.28;0.80;;;;;;;20.12;59.43;96206.22;2076323;28;20659;-70
2022/09/08 10:08:47;;;;;;;4.40;0.90;;;;;;;20.83;58.00;96210.38;2070314;28;20225;-71
2022/09/08 10:10:16;;;;;;;2.67;0.85;;;;;;;21.20;57.61;96200.75;2070278;28;20263;-70
2022/09/08 10:11:20;;;;;;;2.17;1.05;;;;;;;21.03;57.21;96203.19;2070240;28;20198;-70
2022/09/08 10:12:36;;;;;;;2.00;0.70;;;;;;;22.13;54.87;96203.38;2070001;28;20229;-70
2022/09/08 10:13:56;;;;;;;2.13;0.90;;;;;;;22.38;54.66;96195.63;2069126;28;20225;-70
2022/09/08 10:15:06;;;;;;;2.42;0.80;;;;;;;22.65;53.15;96193.84;2069890;28;20204;-69
2022/09/08 10:16:20;;;;;;;2.42;0.80;;;;;;;22.58;53.61;96190.97;2067543;28;20233;-70
2022/09/08 10:17:50;;;;;;;4.65;0.80;;;;;;;22.42;53.17;96191.66;2064212;28;20220;-69
2022/09/08 10:19:07;;;;;;;2.55;0.70;;;;;;;23.03;51.93;96197.09;2069994;28;20198;-70
2022/09/08 10:20:35;;;;;;;3.13;0.80;;;;;;;23.18;51.43;96188.56;2067031;28;20202;-70
2022/09/08 10:27:04;;;;;;;7.60;0.90;;;;;;;23.85;49.21;96188.66;2070560;28;20186;-70
2022/09/08 10:28:28;;;;;;;1.75;0.80;;;;;;;23.77;48.24;96196.63;2067711;28;20240;-70
2022/09/08 10:29:36;;;;;;;1.67;0.80;;;;;;;24.27;48.31;96194.91;2070294;28;20217;-68
2022/09/08 10:30:52;;;;;;;2.15;0.90;;;;;;;23.94;47.56;96187.69;2068823;28;20206;-69
2022/09/08 10:32:16;;;;;;;10.32;1.95;;;;;;;24.36;47.93;96195.78;2068918;28;20895;-70
2022/09/08 10:40:24;;;;;;;6.07;1.00;;;;;;;24.46;46.16;96193.75;2070331;28;20201;-68
2022/09/08 10:42:05;;;;;;;7.22;1.63;;;;;;;23.85;48.80;96193.97;2067770;28;20288;-68
2022/09/08 10:43:42;;;;;;;2.03;0.90;;;;;;;23.48;49.14;96208.50;2069336;28;20349;-72
2022/09/08 10:45:17;;;;;;;2.90;0.90;;;;;;;22.99;50.69;96201.91;2066942;28;20198;-73
2022/09/08 10:46:32;;;;;;;3.85;0.80;;;;;;;22.38;54.27;96198.28;2057899;28;20206;-72
2022/09/08 10:48:11;;;;;;;1.20;0.60;;;;;;;21.94;55.70;96199.03;2069486;28;20226;-73
2022/09/08 10:49:18;;;;;;;3.13;1.15;;;;;;;21.59;56.96;96215.75;2070045;28;20244;-73
2022/09/08 10:50:25;;;;;;;2.55;0.80;;;;;;;22.04;56.65;96206.09;2070098;28;20804;-72
2022/09/08 10:51:41;;;;;;;4.47;1.00;;;;;;;21.79;56.44;96200.53;2069307;28;20234;-72
2022/09/08 10:53:00;;;;;;;5.90;0.85;;;;;;;21.88;56.17;96201.44;2069617;28;20252;-72
2022/09/08 10:54:34;;;;;;;4.80;0.80;;;;;;;21.31;57.49;96207.72;2067652;28;20202;-73
2022/09/08 10:56:07;;;;;;;8.00;0.95;;;;;;;21.53;57.39;96183.44;2069949;28;20569;-73
2022/09/08 10:57:56;;;;;;;2.83;0.90;;;;;;;22.30;55.36;96209.66;2069705;28;20194;-72
2022/09/08 10:59:24;;;;;;;1.58;0.75;;;;;;;21.89;55.59;96213.72;2060749;28;20209;-72
2022/09/08 11:00:54;;;;;;;1.65;0.70;;;;;;;23.71;51.47;96215.94;2060265;28;20289;-72
2022/09/08 11:02:09;;;;;;;2.55;0.80;;;;;;;22.42;52.23;96202.31;2059071;28;20633;-72
2022/09/08 11:03:40;;;;;;;3.17;0.90;;;;;;;22.23;53.39;96205.94;2060381;28;20226;-70
2022/09/08 11:05:05;;;;;;;3.75;0.90;;;;;;;23.55;51.70;96214.84;2060123;28;20290;-69
2022/09/08 11:06:15;;;;;;;2.33;0.80;;;;;;;23.29;50.17;96198.94;2060553;28;20198;-69
2022/09/08 11:07:56;;;;;;;1.90;0.70;;;;;;;22.37;52.28;96211.75;2057643;28;20234;-69
2022/09/08 11:16:51;;;;;;;4.90;1.30;;;;;;;22.83;50.52;96204.47;2085469;28;20561;-68
2022/09/08 11:18:24;;;;;;;2.50;0.90;;;;;;;23.79;47.87;96200.81;2077478;28;20221;-69
2022/09/08 11:19:36;;;;;;;3.38;0.80;;;;;;;24.31;46.54;96209.59;2061973;28;20256;-69
2022/09/08 11:20:52;;;;;;;3.65;0.80;;;;;;;24.03;46.73;96201.06;2074623;28;20811;-69
2022/09/08 11:33:29;;;;;;;6.88;1.30;;;;;;;24.98;42.80;96202.44;2078416;28;20204;-68
2022/09/08 11:35:07;;;;;;;3.42;1.42;;;;;;;25.17;43.54;96166.50;2077303;28;20676;-68
2022/09/08 11:36:23;;;;;;;3.70;1.08;;;;;;;26.33;41.96;96180.16;2077855;28;20739;-68
2022/09/08 11:37:44;;;;;;;4.47;1.00;;;;;;;26.33;41.56;96198.88;2077553;28;20583;-68
2022/09/08 11:39:04;;;;;;;3.90;1.17;;;;;;;24.18;45.81;96199.41;2073479;28;20231;-69
2022/09/08 11:40:27;;;;;;;4.40;0.88;;;;;;;25.25;44.78;96210.06;2076681;28;20204;-68
2022/09/08 11:41:44;;;;;;;1.85;0.80;;;;;;;25.86;43.96;96211.34;2077508;28;20696;-68
2022/09/08 11:42:58;;;;;;;3.17;1.13;;;;;;;24.45;46.30;96216.09;2078244;28;20490;-68
2022/09/08 11:44:15;;;;;;;4.10;1.00;;;;;;;24.23;46.56;96213.09;2078169;28;20229;-68
2022/09/08 11:45:45;;;;;;;9.00;0.85;;;;;;;23.85;47.12;96212.63;2076847;28;20849;-68
2022/09/08 11:46:49;;;;;;;8.00;1.00;;;;;;;23.65;49.08;96214.72;2077792;28;20204;-68
2022/09/08 11:48:27;;;;;;;5.40;0.95;;;;;;;23.86;48.06;96185.00;2078086;28;20712;-68
2022/09/08 11:49:45;;;;;;;1.50;0.80;;;;;;;24.35;46.79;96220.78;2077802;28;20201;-68
2022/09/08 11:51:26;;;;;;;3.15;0.90;;;;;;;23.60;47.98;96214.38;2084726;28;20223;-66
2022/09/08 11:53:06;;;;;;;4.57;0.77;;;;;;;22.39;50.46;96209.78;2078012;28;20432;-66
2022/09/08 11:54:37;;;;;;;12.23;1.52;;;;;;;22.01;51.24;96210.72;2077904;28;20255;-66
2022/09/08 11:56:13;;;;;;;13.60;1.17;;;;;;;21.80;52.96;96215.47;2077429;28;20205;-66
2022/09/08 11:57:25;;;;;;;4.95;1.00;;;;;;;21.62;52.12;96205.66;2078362;28;20225;-66
2022/09/08 11:58:35;;;;;;;3.50;1.00;;;;;;;21.78;52.15;96210.31;2078709;28;20236;-65
2022/09/08 12:00:17;;;;;;;7.45;1.15;;;;;;;22.48;49.49;96204.34;2077757;28;20894;-66
2022/09/08 12:01:21;;;;;;;7.22;1.15;;;;;;;22.11;51.11;96210.66;2052764;28;20289;-65
2022/09/08 12:02:44;;;;;;;8.95;1.17;;;;;;;21.82;51.47;96210.84;2055195;28;20354;-66
2022/09/08 12:04:18;;;;;;;5.88;1.00;;;;;;;21.60;52.55;96215.59;2078072;28;20668;-66
2022/09/08 12:05:34;;;;;;;2.08;0.82;;;;;;;21.36;52.09;96210.78;2068973;28;20297;-66
2022/09/08 12:07:05;;;;;;;4.45;0.90;;;;;;;21.07;52.72;96219.66;2077597;28;20240;-66
2022/09/08 12:08:30;;;;;;;4.70;0.98;;;;;;;21.13;52.11;96216.44;2077136;28;20779;-65
2022/09/08 12:09:36;;;;;;;18.55;8.45;;;;;;;21.32;51.16;96214.72;2078448;28;20224;-65
2022/09/08 12:11:02;;;;;;;9.88;4.93;;;;;;;22.49;48.76;96208.69;2078354;28;20232;-64
2022/09/08 12:12:39;;;;;;;5.20;2.33;;;;;;;23.08;48.27;96218.75;2077454;28;20715;-64
2022/09/08 12:19:33;;;;;;;7.70;1.00;;;;;;;21.37;51.55;96196.53;2084445;28;20556;-62
2022/09/08 12:20:47;;;;;;;5.05;1.08;;;;;;;21.27;52.40;96222.25;2076761;28;20193;-62
2022/09/08 12:22:16;;;;;;;6.40;1.27;;;;;;;21.26;51.35;96217.94;2085432;28;20200;-63
2022/09/08 12:23:49;;;;;;;6.90;3.20;;;;;;;22.50;48.99;96218.34;2080388;28;20727;-64
2022/09/08 12:25:24;;;;;;;3.00;1.10;;;;;;;23.21;47.36;96213.06;2080218;28;20731;-65
2022/09/08 12:26:53;;;;;;;5.97;1.20;;;;;;;24.01;46.22;96224.38;2070246;28;20259;-64
2022/09/08 12:33:06;;;;;;;2.67;1.00;;;;;;;23.52;46.35;96206.38;2082409;28;20219;-65
2022/09/08 12:41:05;;;;;;;4.40;0.80;;;;;;;20.76;52.03;96217.25;2116160;27;20571;-65
2022/09/08 12:42:30;;;;;;;4.38;0.98;;;;;;;20.69;52.39;96213.44;2108199;28;20281;-65
2022/09/08 12:43:43;;;;;;;8.07;1.00;;;;;;;20.76;52.24;96208.44;2078343;28;20672;-64
2022/09/08 12:45:13;;;;;;;6.00;1.10;;;;;;;21.03;50.75;96219.13;2082449;28;20266;-65
2022/09/08 12:50:44;;;;;;;4.57;1.05;;;;;;;22.29;49.41;96212.47;2085955;28;20554;-63
2022/09/08 12:57:03;;;;;;;1.92;0.80;;;;;;;24.07;45.55;96205.06;2079009;28;20263;-64
2022/09/08 12:58:05;;;;;;;4.30;1.00;;;;;;;23.85;46.07;96207.31;2078423;28;20240;-63
2022/09/08 12:59:24;;;;;;;6.07;0.90;;;;;;;24.44;44.83;96207.28;2078367;28;20296;-64
2022/09/08 13:00:32;;;;;;;2.75;0.80;;;;;;;23.98;45.26;96204.19;2078421;28;20280;-66
2022/09/08 13:01:41;;;;;;;10.10;1.15;;;;;;;23.35;47.22;96192.97;2078357;28;20289;-66
2022/09/08 13:03:17;;;;;;;2.40;0.85;;;;;;;22.97;48.00;96193.25;2078243;28;20914;-65
2022/09/08 13:04:38;;;;;;;3.30;1.10;;;;;;;22.47;49.79;96200.03;2078993;28;20287;-66
2022/09/08 13:05:45;;;;;;;3.00;0.90;;;;;;;22.01;49.71;96200.06;2078854;28;20217;-66
2022/09/08 13:07:18;;;;;;;7.43;1.00;;;;;;;21.48;52.46;96196.31;2077552;28;20292;-66
2022/09/08 13:08:32;;;;;;;3.65;1.23;;;;;;;21.16;51.37;96194.09;2061066;28;20237;-66
2022/09/08 13:14:48;;;;;;;2.10;0.85;;;;;;;20.03;56.69;96202.56;2093112;28;20542;-66
2022/09/08 13:22:44;;;;;;;3.85;0.80;;;;;;;20.72;56.60;96210.53;2088577;28;20565;-62
2022/09/08 13:23:45;;;;;;;4.20;1.00;;;;;;;20.33;56.96;96195.47;2083900;28;20236;-63
2022/09/08 13:25:07;;;;;;;3.25;1.05;;;;;;;20.18;57.00;96204.84;2084130;28;20239;-62
2022/09/08 13:32:02;;;;;;;2.50;0.80;;;;;;;20.80;55.72;96207.19;2064961;27;1326527;-62
2022/09/08 13:33:21;;;;;;;2.35;0.80;;;;;;;20.85;54.86;96196.97;2087163;28;20307;-62
2022/09/08 13:34:35;;;;;;;2.88;0.90;;;;;;;20.69;55.67;96187.75;2087135;28;20593;-64
2022/09/08 13:36:03;;;;;;;4.15;1.05;;;;;;;20.95;54.76;96211.06;2087232;28;20235;-64
2022/09/08 13:37:17;;;;;;;2.50;0.80;;;;;;;21.46;53.97;96197.47;2086826;28;20224;-64
2022/09/08 13:38:33;;;;;;;6.72;2.65;;;;;;;22.71;50.99;96197.72;2085850;28;20735;-66
2022/09/08 13:40:13;;;;;;;19.48;7.63;;;;;;;23.46;48.97;96199.84;2087138;28;20207;-66
2022/09/08 13:41:38;;;;;;;4.85;1.20;;;;;;;23.93;47.88;96207.38;2086732;28;20192;-66
2022/09/08 13:43:00;;;;;;;3.30;0.80;;;;;;;24.05;46.84;96204.38;2086735;28;20311;-66
2022/09/08 13:44:15;;;;;;;3.15;1.00;;;;;;;24.14;46.82;96203.41;2087168;28;20333;-66
2022/09/08 13:45:35;;;;;;;3.88;1.10;;;;;;;24.21;46.71;96201.72;2086641;28;20290;-66
2022/09/08 13:47:07;;;;;;;2.50;0.80;;;;;;;23.64;45.72;96197.94;2087526;28;20311;-66
2022/09/08 13:48:33;;;;;;;4.55;0.90;;;;;;;23.70;46.23;96190.28;2086919;28;20251;-66
2022/09/08 13:49:47;;;;;;;5.53;0.80;;;;;;;23.37;46.84;96187.50;2087068;28;20196;-66
2022/09/08 13:51:01;;;;;;;3.10;0.80;;;;;;;22.28;46.76;96161.13;2087115;28;20619;-66
2022/09/08 13:52:32;;;;;;;3.25;0.88;;;;;;;22.26;47.16;96180.84;2086537;28;20227;-65
2022/09/08 13:53:52;;;;;;;5.03;1.33;;;;;;;22.59;47.69;96182.00;2087043;28;20243;-66
2022/09/08 13:55:35;;;;;;;6.10;1.20;;;;;;;22.71;48.11;96177.25;2086636;28;20234;-66
2022/09/08 14:02:04;;;;;;;6.45;1.40;;;;;;;24.05;45.96;96194.56;2086248;28;20172;-66
2022/09/08 14:03:06;;;;;;;3.72;0.98;;;;;;;24.57;45.17;96201.44;2094412;28;20298;-66
2022/09/08 14:04:13;;;;;;;4.65;1.20;;;;;;;24.12;45.08;96200.91;2094227;28;20606;-66
2022/09/08 14:05:23;;;;;;;5.45;1.00;;;;;;;23.57;46.75;96196.88;2086871;28;20291;-66
2022/09/08 14:06:49;;;;;;;4.32;1.00;;;;;;;23.55;45.96;96198.88;2086859;28;20291;-66
2022/09/08 14:08:02;;;;;;;3.97;1.00;;;;;;;23.23;46.73;96189.75;2085781;28;20806;-66
2022/09/08 14:09:15;;;;;;;2.20;0.95;;;;;;;23.18;46.90;96197.38;2086105;28;20633;-67
2022/09/08 14:10:19;;;;;;;7.28;1.15;;;;;;;23.02;47.20;96189.25;2086162;28;20338;-66
2022/09/08 14:11:33;;;;;;;5.93;1.13;;;;;;;22.80;48.10;96196.78;2086177;28;20244;-66
2022/09/08 14:12:35;;;;;;;3.30;0.90;;;;;;;22.45;48.34;96195.88;2086383;28;20219;-66
2022/09/08 14:13:37;;;;;;;5.28;0.90;;;;;;;22.53;48.28;96195.09;2086805;28;20201;-67
2022/09/08 14:15:10;;;;;;;5.22;1.05;;;;;;;22.93;46.64;96199.03;2086897;28;20254;-66
2022/09/08 14:16:32;;;;;;;5.47;1.08;;;;;;;22.42;47.11;96201.47;2085849;28;20651;-65
2022/09/08 14:17:43;;;;;;;3.17;0.95;;;;;;;22.28;48.37;96205.47;2090951;28;20705;-66
2022/09/08 14:19:18;;;;;;;7.22;1.38;;;;;;;22.07;48.83;96193.34;2095029;28;20287;-65
2022/09/08 14:20:31;;;;;;;1.65;0.70;;;;;;;22.31;47.11;96205.19;2094924;28;20199;-66
2022/09/08 14:21:45;;;;;;;6.72;0.70;;;;;;;22.70;45.72;96209.34;2093960;28;20870;-66
2022/09/08 14:23:05;;;;;;;4.43;1.33;;;;;;;22.84;44.68;96219.41;2094565;28;20243;-65
2022/09/08 14:24:17;;;;;;;3.38;0.80;;;;;;;23.05;44.62;96195.13;2094684;28;20536;-66
2022/09/08 14:25:26;;;;;;;1.73;0.73;;;;;;;23.48;44.47;96200.53;2094902;28;20283;-66
2022/09/08 14:33:37;;;;;;;2.00;0.93;;;;;;;23.55;43.70;96185.53;2102917;28;20253;-63
2022/09/08 14:34:53;;;;;;;2.65;0.80;;;;;;;23.49;43.98;96180.88;2093954;28;20234;-63
2022/09/08 14:36:12;;;;;;;3.65;1.10;;;;;;;23.07;44.11;96178.97;2096280;28;20196;-62
2022/09/08 14:37:15;;;;;;;3.05;0.80;;;;;;;22.73;44.46;96185.94;2100114;28;20191;-63
2022/09/08 14:38:37;;;;;;;3.95;0.93;;;;;;;22.15;45.60;96184.59;2094452;28;20256;-63
2022/09/08 14:40:00;;;;;;;3.78;0.88;;;;;;;21.82;46.95;96201.03;2094696;28;20238;-63
2022/09/08 14:41:13;;;;;;;4.22;0.80;;;;;;;21.96;47.03;96190.91;2094469;28;20246;-62
2022/09/08 14:42:23;;;;;;;2.05;0.60;;;;;;;22.63;45.45;96194.00;2093250;28;20290;-63
2022/09/08 14:43:46;;;;;;;3.58;0.73;;;;;;;22.48;45.75;96198.22;2089093;28;20234;-63
2022/09/08 14:45:52;;;;;;;2.40;0.77;;;;;;;22.05;46.76;96197.13;2088791;28;20235;-63
2022/09/08 14:47:07;;;;;;;3.13;0.90;;;;;;;21.77;47.88;96198.00;2070772;28;20214;-66
2022/09/08 14:48:19;;;;;;;2.25;0.70;;;;;;;21.45;49.28;96193.94;2071271;28;20256;-66
2022/09/08 14:50:02;;;;;;;2.45;0.82;;;;;;;21.40;49.91;96198.03;2071755;28;20672;-66
2022/09/08 14:51:14;;;;;;;5.38;0.90;;;;;;;21.34;50.57;96197.66;2070909;28;20193;-65
2022/09/08 14:52:41;;;;;;;3.17;0.90;;;;;;;21.20;51.11;96175.06;2072853;28;20206;-65
2022/09/08 14:54:10;;;;;;;4.95;1.33;;;;;;;21.11;51.52;96196.34;2089267;28;20796;-66
2022/09/08 14:55:31;;;;;;;4.00;1.00;;;;;;;20.99;50.71;96195.69;2089239;28;20726;-66
2022/09/08 14:56:38;;;;;;;5.78;0.80;;;;;;;20.91;50.97;96193.72;2088046;28;20337;-65
2022/09/08 14:57:44;;;;;;;3.80;1.15;;;;;;;20.87;51.85;96197.66;2087978;28;20294;-66
2022/09/08 14:59:10;;;;;;;4.70;0.80;;;;;;;20.86;52.11;96195.97;2087011;28;20287;-66
2022/09/08 15:00:20;;;;;;;6.65;0.88;;;;;;;20.88;52.20;96194.84;2089276;28;20321;-64
2022/09/08 15:01:36;;;;;;;2.63;0.70;;;;;;;20.63;52.08;96196.28;2089249;28;20204;-63
2022/09/08 15:02:46;;;;;;;7.22;1.45;;;;;;;20.52;52.10;96191.97;2086999;28;20691;-63
2022/09/08 15:04:03;;;;;;;4.28;0.93;;;;;;;20.41;52.32;96186.81;2089110;28;20330;-64
2022/09/08 15:05:26;;;;;;;2.58;0.82;;;;;;;20.42;52.43;96198.25;2087982;28;20200;-66
2022/09/08 15:06:49;;;;;;;5.60;1.00;;;;;;;20.50;52.87;96190.44;2087815;28;20203;-63
2022/09/08 15:07:57;;;;;;;2.35;1.27;;;;;;;20.45;53.06;96180.25;2088672;28;20215;-63
2022/09/08 15:09:28;;;;;;;1.73;0.70;;;;;;;21.02;51.61;96185.59;2088984;28;20759;-63
2022/09/08 15:10:50;;;;;;;7.65;0.88;;;;;;;21.86;49.47;96185.63;2088881;28;20712;-63
2022/09/08 15:11:56;;;;;;;5.72;0.80;;;;;;;22.33;47.60;96188.09;2089039;28;20706;-63
2022/09/08 15:13:07;;;;;;;5.63;0.90;;;;;;;22.29;46.81;96177.91;2088378;28;20382;-63
2022/09/08 15:14:12;;;;;;;3.88;0.88;;;;;;;22.09;46.94;96169.25;2088535;28;20236;-63
2022/09/08 15:15:34;;;;;;;4.60;0.88;;;;;;;22.30;46.74;96183.06;2089309;28;20196;-63
2022/09/08 15:16:48;;;;;;;3.92;0.90;;;;;;;22.25;47.10;96176.56;2088302;28;20204;-63
2022/09/08 15:17:55;;;;;;;5.20;0.88;;;;;;;22.45;46.76;96178.06;2087833;28;20212;-63
2022/09/08 15:19:13;;;;;;;4.93;1.00;;;;;;;22.47;46.72;96177.91;2088816;28;20255;-63
2022/09/08 15:27:19;;;;;;;3.45;0.90;;;;;;;21.79;48.13;96189.91;2088289;28;20184;-63
2022/09/08 15:28:20;;;;;;;3.35;1.02;;;;;;;21.23;48.87;96184.56;2088863;28;20230;-63
2022/09/08 15:29:47;;;;;;;3.90;1.00;;;;;;;20.86;50.49;96177.41;2088171;28;20239;-63
2022/09/08 15:31:27;;;;;;;3.72;1.20;;;;;;;20.92;50.30;96183.97;2089030;28;20200;-63
2022/09/08 15:38:00;;;;;;;6.25;1.83;;;;;;;22.34;47.41;96165.81;2087318;28;20220;-63
2022/09/08 15:39:26;;;;;;;5.25;1.30;;;;;;;22.51;46.97;96163.31;2088632;28;20255;-63
2022/09/08 15:40:27;;;;;;;4.72;1.40;;;;;;;22.50;46.85;96149.19;2080039;28;20236;-63
2022/09/08 15:41:36;;;;;;;4.05;1.42;;;;;;;22.48;46.59;96153.00;2080221;28;20228;-63
2022/09/08 15:43:03;;;;;;;5.00;1.48;;;;;;;22.44;46.11;96159.63;2088270;28;20254;-64
2022/09/08 15:44:09;;;;;;;4.18;1.05;;;;;;;22.55;45.35;96166.50;2088904;28;20200;-63
2022/09/08 15:45:46;;;;;;;5.80;1.33;;;;;;;21.97;45.79;96166.81;2088940;28;20304;-63
2022/09/08 15:47:00;;;;;;;5.15;1.10;;;;;;;21.58;46.81;96172.38;2088169;28;20227;-63
2022/09/08 15:48:14;;;;;;;2.75;1.00;;;;;;;21.17;48.31;96177.19;2086034;28;20283;-63
2022/09/08 15:49:31;;;;;;;2.95;1.00;;;;;;;20.91;49.20;96179.63;2088687;28;20200;-63
2022/09/08 15:50:44;;;;;;;5.90;1.00;;;;;;;20.59;50.80;96180.81;2088916;28;20196;-64
2022/09/08 15:52:23;;;;;;;8.02;0.95;;;;;;;20.45;51.57;96179.41;2088803;28;20762;-64
2022/09/08 15:53:24;;;;;;;2.50;0.75;;;;;;;20.29;50.79;96175.53;2079364;28;20221;-64
2022/09/08 15:54:46;;;;;;;3.97;1.20;;;;;;;20.19;51.47;96169.41;2079735;28;20574;-64
2022/09/08 15:56:04;;;;;;;9.70;1.00;;;;;;;20.16;51.77;96167.00;2088288;28;20330;-64
2022/09/08 15:57:42;;;;;;;4.80;1.45;;;;;;;19.97;51.97;96159.91;2088282;28;20816;-64
2022/09/08 15:59:15;;;;;;;8.73;1.13;;;;;;;19.95;52.82;96165.34;2087987;28;20702;-64
2022/09/08 16:00:40;;;;;;;4.90;1.00;;;;;;;20.04;53.40;96183.06;2088680;28;20836;-64
2022/09/08 17:03:30;;;;;;;3.47;1.20;;;;;;;18.84;62.74;96178.47;2064652;27;1240692;-64
2022/09/08 17:04:41;;;;;;;5.15;1.00;;;;;;;18.94;63.58;96202.34;2108500;28;20676;-67
2022/09/08 17:05:45;;;;;;;3.85;1.10;;;;;;;18.84;61.40;96204.06;2110520;28;20201;-64
